Time,TemperatureF,DewpointF,PressureIn,WindDirection,WindDirectionDegrees,WindSpeedMPH,WindSpeedGustMPH,Humidity,HourlyPrecipIn,Conditions,Clouds,dailyrainin,SoftwareType,DateUTC
2013-06-10 00:05:00,73.9,71.7,29.96,ENE,68,0.0,0.0,93,0.00,,,0.00,Wunderground v.1.15,2013-06-10 05:05:00,
2013-06-10 00:15:00,73.7,71.9,29.96,ENE,68,0.0,0.0,94,0.00,,,0.00,Wunderground v.1.15,2013-06-10 05:15:00,
2013-06-10 00:25:00,73.5,71.7,29.96,ENE,68,0.0,0.0,94,0.00,,,0.00,Wunderground v.1.15,2013-06-10 05:25:00,
2013-06-10 00:35:00,73.4,71.6,29.96,ENE,68,0.0,0.0,94,0.00,,,0.00,Wunderground v.1.15,2013-06-10 05:35:00,
2013-06-10 00:40:00,73.3,71.5,29.96,ENE,68,0.0,0.0,94,0.00,,,0.00,Wunderground v.1.15,2013-06-10 05:40:00,
2013-06-10 00:50:00,73.0,71.2,29.96,ENE,68,0.0,0.0,94,0.00,,,0.00,Wunderground v.1.15,2013-06-10 05:50:00,
2013-06-10 00:59:00,72.9,71.4,29.96,ENE,68,0.0,0.0,95,0.00,,,0.00,Wunderground v.1.15,2013-06-10 05:59:00,
2013-06-10 01:05:00,72.8,71.3,29.96,ENE,68,0.0,0.0,95,0.00,,,0.00,Wunderground v.1.15,2013-06-10 06:05:00,
2013-06-10 01:15:00,72.7,71.5,29.96,ENE,68,0.0,0.0,96,0.00,,,0.00,Wunderground v.1.15,2013-06-10 06:15:00,
2013-06-10 01:25:00,72.6,71.4,29.96,ENE,68,0.0,0.0,96,0.00,,,0.00,Wunderground v.1.15,2013-06-10 06:25:00,
2013-06-10 01:30:00,72.5,71.3,29.96,ENE,68,0.0,0.0,96,0.00,,,0.00,Wunderground v.1.15,2013-06-10 06:30:00,
2013-06-10 01:40:00,72.5,71.3,29.96,ENE,68,0.0,0.0,96,0.00,,,0.00,Wunderground v.1.15,2013-06-10 06:40:00,
2013-06-10 01:50:00,72.3,71.1,29.95,ENE,68,0.0,0.0,96,0.00,,,0.00,Wunderground v.1.15,2013-06-10 06:50:00,
2013-06-10 02:00:00,72.1,70.9,29.95,ENE,68,0.0,0.0,96,0.00,,,0.00,Wunderground v.1.15,2013-06-10 07:00:00,
2013-06-10 02:10:00,71.9,70.7,29.95,ENE,68,0.0,0.0,96,0.00,,,0.00,Wunderground v.1.15,2013-06-10 07:10:00,
2013-06-10 02:20:00,71.7,70.5,29.96,ENE,68,0.0,0.0,96,0.00,,,0.00,Wunderground v.1.15,2013-06-10 07:20:00,
2013-06-10 02:30:00,71.3,70.1,29.96,ENE,68,0.0,0.0,96,0.00,,,0.00,Wunderground v.1.15,2013-06-10 07:30:00,
2013-06-10 02:40:00,71.2,70.0,29.96,ENE,68,0.0,0.0,96,0.00,,,0.00,Wunderground v.1.15,2013-06-10 07:40:00,
2013-06-10 02:50:00,71.1,69.9,29.96,ENE,68,0.0,0.0,96,0.00,,,0.00,Wunderground v.1.15,2013-06-10 07:50:00,
2013-06-10 03:00:00,71.0,70.1,29.96,ENE,68,0.0,0.0,97,0.00,,,0.00,Wunderground v.1.15,2013-06-10 08:00:00,
2013-06-10 03:05:00,70.9,70.0,29.96,ENE,68,0.0,0.0,97,0.00,,,0.00,Wunderground v.1.15,2013-06-10 08:05:00,
2013-06-10 03:15:00,70.9,70.0,29.96,ENE,68,0.0,0.0,97,0.00,,,0.00,Wunderground v.1.15,2013-06-10 08:15:00,
2013-06-10 03:24:00,70.9,70.0,29.96,ENE,68,0.0,0.0,97,0.00,,,0.00,Wunderground v.1.15,2013-06-10 08:24:00,
2013-06-10 03:30:00,70.9,70.0,29.96,ENE,68,0.0,0.0,97,0.00,,,0.00,Wunderground v.1.15,2013-06-10 08:30:00,
2013-06-10 03:40:00,70.8,69.9,29.96,ENE,68,0.0,0.0,97,0.00,,,0.00,Wunderground v.1.15,2013-06-10 08:40:00,
2013-06-10 03:50:00,70.7,69.8,29.96,ENE,68,0.0,0.0,97,0.00,,,0.00,Wunderground v.1.15,2013-06-10 08:50:00,
2013-06-10 04:00:00,70.7,69.8,29.96,ENE,68,0.0,0.0,97,0.00,,,0.00,Wunderground v.1.15,2013-06-10 09:00:00,
2013-06-10 04:10:00,70.8,69.9,29.96,ENE,68,0.0,0.0,97,0.00,,,0.00,Wunderground v.1.15,2013-06-10 09:10:00,
2013-06-10 04:19:00,70.9,70.0,29.96,ENE,68,0.0,0.0,97,0.00,,,0.00,Wunderground v.1.15,2013-06-10 09:19:00,
2013-06-10 04:25:00,70.9,70.0,29.96,ENE,68,0.0,0.0,97,0.00,,,0.00,Wunderground v.1.15,2013-06-10 09:25:00,
2013-06-10 04:35:00,71.0,70.1,29.96,ENE,68,0.0,0.0,97,0.00,,,0.00,Wunderground v.1.15,2013-06-10 09:35:00,
2013-06-10 04:45:00,71.2,70.3,29.96,ENE,68,0.0,0.0,97,0.00,,,0.00,Wunderground v.1.15,2013-06-10 09:45:00,
2013-06-10 04:50:00,71.2,70.3,29.96,ENE,68,0.0,0.0,97,0.00,,,0.00,Wunderground v.1.15,2013-06-10 09:50:00,
2013-06-10 05:00:00,71.4,70.5,29.97,ENE,68,0.0,0.0,97,0.00,,,0.00,Wunderground v.1.15,2013-06-10 10:00:00,
2013-06-10 05:09:00,71.6,70.7,29.97,ENE,68,0.0,0.0,97,0.00,,,0.00,Wunderground v.1.15,2013-06-10 10:09:00,
2013-06-10 05:15:00,71.7,70.8,29.96,ENE,68,0.0,0.0,97,0.00,,,0.00,Wunderground v.1.15,2013-06-10 10:15:00,
2013-06-10 05:25:00,71.9,71.0,29.96,ENE,68,0.0,0.0,97,0.00,,,0.00,Wunderground v.1.15,2013-06-10 10:25:00,
2013-06-10 05:35:00,72.1,71.2,29.97,ENE,68,0.0,0.0,97,0.00,,,0.00,Wunderground v.1.15,2013-06-10 10:35:00,
2013-06-10 05:40:00,72.2,71.3,29.97,ENE,68,0.0,0.0,97,0.00,,,0.00,Wunderground v.1.15,2013-06-10 10:40:00,
2013-06-10 05:50:00,72.3,71.4,29.97,ENE,68,0.0,0.0,97,0.00,,,0.00,Wunderground v.1.15,2013-06-10 10:50:00,
2013-06-10 06:00:00,72.3,71.4,29.97,ENE,68,0.0,0.0,97,0.00,,,0.00,Wunderground v.1.15,2013-06-10 11:00:00,
2013-06-10 06:10:00,72.4,71.5,29.97,ENE,68,0.0,0.0,97,0.00,,,0.00,Wunderground v.1.15,2013-06-10 11:10:00,
2013-06-10 06:20:00,72.5,71.6,29.97,ENE,68,0.0,0.0,97,0.00,,,0.00,Wunderground v.1.15,2013-06-10 11:20:00,
2013-06-10 06:30:00,72.6,71.7,29.98,ENE,68,0.0,0.0,97,0.00,,,0.00,Wunderground v.1.15,2013-06-10 11:30:00,
2013-06-10 06:40:00,72.7,71.8,29.98,ENE,68,0.0,0.0,97,0.00,,,0.00,Wunderground v.1.15,2013-06-10 11:40:00,
2013-06-10 06:49:00,73.0,72.1,29.98,ENE,68,0.0,0.0,97,0.00,,,0.00,Wunderground v.1.15,2013-06-10 11:49:00,
2013-06-10 06:55:00,73.0,72.1,29.98,ENE,68,0.0,0.0,97,0.00,,,0.00,Wunderground v.1.15,2013-06-10 11:55:00,
2013-06-10 07:05:00,73.3,72.4,29.98,ENE,68,0.0,0.0,97,0.00,,,0.00,Wunderground v.1.15,2013-06-10 12:05:00,
2013-06-10 07:15:00,73.5,72.6,29.98,ENE,68,0.0,0.0,97,0.00,,,0.00,Wunderground v.1.15,2013-06-10 12:15:00,
2013-06-10 07:25:00,73.6,72.7,29.98,ENE,68,0.0,0.0,97,0.00,,,0.00,Wunderground v.1.15,2013-06-10 12:25:00,
2013-06-10 07:35:00,73.8,72.9,29.98,NNW,343,0.0,0.0,97,0.00,,,0.00,Wunderground v.1.15,2013-06-10 12:35:00,
2013-06-10 07:45:00,74.0,72.8,29.98,NNW,343,0.0,0.0,96,0.00,,,0.00,Wunderground v.1.15,2013-06-10 12:45:00,
2013-06-10 07:55:00,74.0,72.8,29.98,West,263,0.0,0.0,96,0.00,,,0.00,Wunderground v.1.15,2013-06-10 12:55:00,
2013-06-10 08:05:00,74.3,73.1,29.98,NNW,333,0.0,0.0,96,0.00,,,0.00,Wunderground v.1.15,2013-06-10 13:05:00,
2013-06-10 08:15:00,74.5,73.3,29.99,NNW,333,0.0,0.0,96,0.00,,,0.00,Wunderground v.1.15,2013-06-10 13:15:00,
2013-06-10 08:25:00,75.0,73.8,29.98,NW,314,0.0,0.0,96,0.00,,,0.00,Wunderground v.1.15,2013-06-10 13:25:00,
2013-06-10 08:35:00,75.3,74.1,29.99,WNW,295,0.0,0.0,96,0.00,,,0.00,Wunderground v.1.15,2013-06-10 13:35:00,
2013-06-10 08:45:00,75.7,74.5,29.99,WNW,290,0.0,0.0,96,0.00,,,0.00,Wunderground v.1.15,2013-06-10 13:45:00,
2013-06-10 08:55:00,76.0,74.5,29.99,West,276,0.0,0.0,95,0.00,,,0.00,Wunderground v.1.15,2013-06-10 13:55:00,
2013-06-10 09:05:00,76.7,74.8,29.99,West,276,0.0,0.0,94,0.00,,,0.00,Wunderground v.1.15,2013-06-10 14:05:00,
2013-06-10 09:15:00,77.2,74.7,29.99,SW,214,0.0,0.0,92,0.00,,,0.00,Wunderground v.1.15,2013-06-10 14:15:00,
2013-06-10 09:25:00,77.8,75.0,29.99,SW,214,0.0,0.0,91,0.00,,,0.00,Wunderground v.1.15,2013-06-10 14:25:00,
2013-06-10 09:35:00,78.4,75.6,29.99,WNW,288,0.0,0.0,91,0.00,,,0.00,Wunderground v.1.15,2013-06-10 14:35:00,
2013-06-10 09:45:00,79.0,75.5,29.99,West,278,0.0,0.0,89,0.00,,,0.00,Wunderground v.1.15,2013-06-10 14:45:00,
2013-06-10 09:50:00,79.5,75.6,29.99,SW,228,0.0,1.0,88,0.00,,,0.00,Wunderground v.1.15,2013-06-10 14:50:00,
2013-06-10 10:00:00,79.7,75.1,29.99,WSW,243,0.0,0.0,86,0.00,,,0.00,Wunderground v.1.15,2013-06-10 15:00:00,
2013-06-10 10:10:00,80.3,75.4,29.98,SW,235,0.0,0.0,85,0.00,,,0.00,Wunderground v.1.15,2013-06-10 15:10:00,
2013-06-10 10:15:00,80.6,75.7,29.98,West,276,0.0,0.0,85,0.00,,,0.00,Wunderground v.1.15,2013-06-10 15:15:00,
2013-06-10 10:25:00,81.8,75.4,29.98,SW,236,0.0,0.0,81,0.00,,,0.00,Wunderground v.1.15,2013-06-10 15:25:00,
2013-06-10 10:35:00,81.8,75.4,29.98,WNW,285,1.0,1.0,81,0.00,,,0.00,Wunderground v.1.15,2013-06-10 15:35:00,
2013-06-10 10:45:00,81.8,74.3,29.98,WSW,238,0.0,1.0,78,0.00,,,0.00,Wunderground v.1.15,2013-06-10 15:45:00,
2013-06-10 10:55:00,82.3,73.6,29.98,SSW,200,0.0,2.0,75,0.00,,,0.00,Wunderground v.1.15,2013-06-10 15:55:00,
2013-06-10 11:05:00,83.2,73.2,29.98,NW,310,0.0,1.0,72,0.00,,,0.00,Wunderground v.1.15,2013-06-10 16:05:00,
2013-06-10 11:15:00,84.4,74.4,29.98,West,261,0.0,0.0,72,0.00,,,0.00,Wunderground v.1.15,2013-06-10 16:15:00,
2013-06-10 11:25:00,84.8,74.3,29.98,NW,319,1.0,1.0,71,0.00,,,0.00,Wunderground v.1.15,2013-06-10 16:25:00,
2013-06-10 11:35:00,85.5,74.6,29.98,NNW,342,1.0,1.0,70,0.00,,,0.00,Wunderground v.1.15,2013-06-10 16:35:00,
2013-06-10 11:45:00,86.1,75.2,29.98,WNW,295,1.0,2.0,70,0.00,,,0.00,Wunderground v.1.15,2013-06-10 16:45:00,
2013-06-10 11:50:00,86.9,74.6,29.98,South,173,1.0,1.0,67,0.00,,,0.00,Wunderground v.1.15,2013-06-10 16:50:00,
2013-06-10 12:00:00,87.5,76.1,29.98,East,95,1.0,1.0,69,0.00,,,0.00,Wunderground v.1.15,2013-06-10 17:00:00,
2013-06-10 12:10:00,88.9,75.6,29.98,SE,143,1.0,2.0,65,0.00,,,0.00,Wunderground v.1.15,2013-06-10 17:10:00,
2013-06-10 12:20:00,89.5,75.7,29.98,West,262,1.0,2.0,64,0.00,,,0.00,Wunderground v.1.15,2013-06-10 17:20:00,
2013-06-10 12:30:00,90.3,75.5,29.98,SE,131,1.0,1.0,62,0.00,,,0.00,Wunderground v.1.15,2013-06-10 17:30:00,
2013-06-10 12:39:00,90.2,74.9,29.98,NNE,29,1.0,1.0,61,0.00,,,0.00,Wunderground v.1.15,2013-06-10 17:39:00,
2013-06-10 12:45:00,90.0,74.2,29.98,SW,235,1.0,1.0,60,0.00,,,0.00,Wunderground v.1.15,2013-06-10 17:45:00,
2013-06-10 12:55:00,90.3,75.0,29.97,ENE,61,1.0,1.0,61,0.00,,,0.00,Wunderground v.1.15,2013-06-10 17:55:00,
2013-06-10 13:05:00,90.6,74.3,29.97,WSW,245,1.0,1.0,59,0.00,,,0.00,Wunderground v.1.15,2013-06-10 18:05:00,
2013-06-10 13:10:00,90.9,74.6,29.97,WSW,258,1.0,1.0,59,0.00,,,0.00,Wunderground v.1.15,2013-06-10 18:10:00,
2013-06-10 13:20:00,91.7,76.8,29.97,East,101,1.0,1.0,62,0.00,,,0.00,Wunderground v.1.15,2013-06-10 18:20:00,
2013-06-10 13:29:00,92.0,76.1,29.97,SE,138,1.0,3.0,60,0.00,,,0.00,Wunderground v.1.15,2013-06-10 18:29:00,
2013-06-10 13:35:00,92.2,77.3,29.96,North,358,1.0,3.0,62,0.00,,,0.00,Wunderground v.1.15,2013-06-10 18:35:00,
2013-06-10 13:45:00,92.1,75.2,29.96,East,84,1.0,1.0,58,0.00,,,0.00,Wunderground v.1.15,2013-06-10 18:45:00,
2013-06-10 13:54:00,92.3,74.3,29.96,NNE,16,1.0,2.0,56,0.00,,,0.00,Wunderground v.1.15,2013-06-10 18:54:00,
2013-06-10 14:00:00,92.4,73.9,29.96,SE,129,1.0,2.0,55,0.00,,,0.00,Wunderground v.1.15,2013-06-10 19:00:00,
2013-06-10 14:10:00,91.7,74.3,29.96,SE,128,1.0,1.0,57,0.00,,,0.00,Wunderground v.1.15,2013-06-10 19:10:00,
2013-06-10 14:15:00,91.7,74.8,29.96,SE,132,1.0,1.0,58,0.00,,,0.00,Wunderground v.1.15,2013-06-10 19:15:00,
2013-06-10 14:24:00,92.2,74.8,29.96,SE,146,1.0,2.0,57,0.00,,,0.00,Wunderground v.1.15,2013-06-10 19:24:00,
2013-06-10 14:30:00,92.2,75.3,29.96,ESE,120,1.0,2.0,58,0.00,,,0.00,Wunderground v.1.15,2013-06-10 19:30:00,
2013-06-10 14:40:00,92.2,74.2,29.96,ENE,77,1.0,1.0,56,0.00,,,0.00,Wunderground v.1.15,2013-06-10 19:40:00,
2013-06-10 14:50:00,92.7,75.2,29.95,SW,226,1.0,1.0,57,0.00,,,0.00,Wunderground v.1.15,2013-06-10 19:50:00,
2013-06-10 15:00:00,93.1,74.0,29.95,ESE,108,1.0,3.0,54,0.00,,,0.00,Wunderground v.1.15,2013-06-10 20:00:00,
2013-06-10 15:10:00,93.5,73.8,29.95,WNW,297,1.0,1.0,53,0.00,,,0.00,Wunderground v.1.15,2013-06-10 20:10:00,
2013-06-10 15:20:00,93.6,73.9,29.94,SSE,162,2.0,2.0,53,0.00,,,0.00,Wunderground v.1.15,2013-06-10 20:20:00,
2013-06-10 15:30:00,94.0,74.8,29.94,WNW,296,1.0,1.0,54,0.00,,,0.00,Wunderground v.1.15,2013-06-10 20:30:00,
2013-06-10 15:40:00,93.5,73.2,29.94,ENE,58,1.0,2.0,52,0.00,,,0.00,Wunderground v.1.15,2013-06-10 20:40:00,
2013-06-10 15:45:00,93.7,75.1,29.94,NW,321,1.0,2.0,55,0.00,,,0.00,Wunderground v.1.15,2013-06-10 20:45:00,
2013-06-10 15:55:00,95.3,73.7,29.93,SSW,210,1.0,1.0,50,0.00,,,0.00,Wunderground v.1.15,2013-06-10 20:55:00,
2013-06-10 16:04:00,95.6,74.0,29.93,SE,125,1.0,1.0,50,0.00,,,0.00,Wunderground v.1.15,2013-06-10 21:04:00,
2013-06-10 16:10:00,95.4,73.8,29.93,WNW,283,1.0,2.0,50,0.00,,,0.00,Wunderground v.1.15,2013-06-10 21:10:00,
2013-06-10 16:20:00,95.4,73.2,29.92,WSW,238,1.0,1.0,49,0.00,,,0.00,Wunderground v.1.15,2013-06-10 21:20:00,
2013-06-10 16:30:00,95.1,74.1,29.92,ESE,105,1.0,2.0,51,0.00,,,0.00,Wunderground v.1.15,2013-06-10 21:30:00,
2013-06-10 16:40:00,95.7,74.7,29.91,NE,51,1.0,1.0,51,0.00,,,0.00,Wunderground v.1.15,2013-06-10 21:40:00,
2013-06-10 16:50:00,94.7,74.9,29.91,ESE,120,1.0,1.0,53,0.00,,,0.00,Wunderground v.1.15,2013-06-10 21:50:00,
2013-06-10 17:00:00,93.7,74.0,29.91,North,358,0.0,0.0,53,0.00,,,0.00,Wunderground v.1.15,2013-06-10 22:00:00,
2013-06-10 17:10:00,93.7,73.4,29.91,ESE,115,1.0,1.0,52,0.00,,,0.00,Wunderground v.1.15,2013-06-10 22:10:00,
2013-06-10 17:20:00,92.2,73.2,29.91,NW,322,1.0,1.0,54,0.00,,,0.00,Wunderground v.1.15,2013-06-10 22:20:00,
2013-06-10 17:30:00,93.2,73.5,29.90,ESE,113,1.0,1.0,53,0.00,,,0.00,Wunderground v.1.15,2013-06-10 22:30:00,
2013-06-10 17:40:00,92.9,73.8,29.90,ENE,71,1.0,2.0,54,0.00,,,0.00,Wunderground v.1.15,2013-06-10 22:40:00,
2013-06-10 17:50:00,93.8,74.6,29.90,ESE,108,0.0,0.0,54,0.00,,,0.00,Wunderground v.1.15,2013-06-10 22:50:00,
2013-06-10 18:00:00,94.0,74.8,29.91,SE,135,1.0,1.0,54,0.00,,,0.00,Wunderground v.1.15,2013-06-10 23:00:00,
2013-06-10 18:10:00,93.3,74.2,29.90,SE,138,0.0,0.0,54,0.00,,,0.00,Wunderground v.1.15,2013-06-10 23:10:00,
2013-06-10 18:15:00,92.9,75.9,29.90,SE,136,0.0,0.0,58,0.00,,,0.00,Wunderground v.1.15,2013-06-10 23:15:00,
2013-06-10 18:25:00,93.0,74.4,29.90,East,99,0.0,0.0,55,0.00,,,0.00,Wunderground v.1.15,2013-06-10 23:25:00,
2013-06-10 18:35:00,93.6,73.9,29.90,SE,136,0.0,1.0,53,0.00,,,0.00,Wunderground v.1.15,2013-06-10 23:35:00,
2013-06-10 18:40:00,93.7,75.1,29.90,East,88,0.0,0.0,55,0.00,,,0.00,Wunderground v.1.15,2013-06-10 23:40:00,
2013-06-10 18:50:00,92.4,73.3,29.90,ESE,113,0.0,0.0,54,0.00,,,0.00,Wunderground v.1.15,2013-06-10 23:50:00,
2013-06-10 19:00:00,92.1,74.1,29.90,West,267,0.0,0.0,56,0.00,,,0.00,Wunderground v.1.15,2013-06-11 00:00:00,
2013-06-10 19:10:00,92.0,74.6,29.90,ESE,104,0.0,0.0,57,0.00,,,0.00,Wunderground v.1.15,2013-06-11 00:10:00,
2013-06-10 19:20:00,91.5,75.1,29.90,ESE,107,0.0,0.0,59,0.00,,,0.00,Wunderground v.1.15,2013-06-11 00:20:00,
2013-06-10 19:30:00,91.7,73.8,29.90,East,101,0.0,0.0,56,0.00,,,0.00,Wunderground v.1.15,2013-06-11 00:30:00,
2013-06-10 19:35:00,92.5,75.6,29.90,East,101,0.0,0.0,58,0.00,,,0.00,Wunderground v.1.15,2013-06-11 00:35:00,
2013-06-10 19:45:00,92.7,74.7,29.90,East,100,0.0,0.0,56,0.00,,,0.00,Wunderground v.1.15,2013-06-11 00:45:00,
2013-06-10 19:55:00,92.2,75.3,29.91,East,100,0.0,0.0,58,0.00,,,0.00,Wunderground v.1.15,2013-06-11 00:55:00,
2013-06-10 20:00:00,91.3,75.0,29.91,East,101,0.0,0.0,59,0.00,,,0.00,Wunderground v.1.15,2013-06-11 01:00:00,
2013-06-10 20:10:00,90.0,75.7,29.90,East,101,0.0,0.0,63,0.00,,,0.00,Wunderground v.1.15,2013-06-11 01:10:00,
2013-06-10 20:20:00,88.9,74.7,29.91,ESE,104,0.0,1.0,63,0.00,,,0.00,Wunderground v.1.15,2013-06-11 01:20:00,
2013-06-10 20:30:00,87.8,73.6,29.91,SSE,153,2.0,2.0,63,0.00,,,0.00,Wunderground v.1.15,2013-06-11 01:30:00,
2013-06-10 20:40:00,86.9,74.2,29.92,East,89,1.0,1.0,66,0.00,,,0.00,Wunderground v.1.15,2013-06-11 01:40:00,
2013-06-10 20:50:00,86.1,73.9,29.92,ESE,123,1.0,2.0,67,0.00,,,0.00,Wunderground v.1.15,2013-06-11 01:50:00,
2013-06-10 21:00:00,85.5,73.7,29.92,WSW,242,1.0,1.0,68,0.00,,,0.00,Wunderground v.1.15,2013-06-11 02:00:00,
2013-06-10 21:10:00,85.0,74.1,29.92,ESE,103,1.0,1.0,70,0.00,,,0.00,Wunderground v.1.15,2013-06-11 02:10:00,
2013-06-10 21:15:00,84.8,74.3,29.92,NE,39,1.0,1.0,71,0.00,,,0.00,Wunderground v.1.15,2013-06-11 02:15:00,
2013-06-10 21:25:00,84.2,74.2,29.92,ESE,115,0.0,1.0,72,0.00,,,0.00,Wunderground v.1.15,2013-06-11 02:25:00,
2013-06-10 21:35:00,83.7,74.5,29.93,NW,308,0.0,0.0,74,0.00,,,0.00,Wunderground v.1.15,2013-06-11 02:35:00,
2013-06-10 21:45:00,83.3,74.1,29.93,NW,314,0.0,0.0,74,0.00,,,0.00,Wunderground v.1.15,2013-06-11 02:45:00,
2013-06-10 21:54:00,82.9,74.2,29.93,SE,127,0.0,1.0,75,0.00,,,0.00,Wunderground v.1.15,2013-06-11 02:54:00,
2013-06-10 22:00:00,82.7,74.0,29.94,ESE,123,0.0,0.0,75,0.00,,,0.00,Wunderground v.1.15,2013-06-11 03:00:00,
2013-06-10 22:10:00,82.3,74.0,29.94,ESE,108,0.0,0.0,76,0.00,,,0.00,Wunderground v.1.15,2013-06-11 03:10:00,
2013-06-10 22:20:00,81.9,74.0,29.95,SSE,148,0.0,0.0,77,0.00,,,0.00,Wunderground v.1.15,2013-06-11 03:20:00,
2013-06-10 22:30:00,81.5,74.0,29.95,ESE,113,0.0,0.0,78,0.00,,,0.00,Wunderground v.1.15,2013-06-11 03:30:00,
2013-06-10 22:40:00,81.1,73.6,29.95,ESE,123,0.0,0.0,78,0.00,,,0.00,Wunderground v.1.15,2013-06-11 03:40:00,
2013-06-10 22:50:00,80.9,73.8,29.95,ESE,122,0.0,0.0,79,0.00,,,0.00,Wunderground v.1.15,2013-06-11 03:50:00,
2013-06-10 23:00:00,80.4,73.7,29.96,ESE,122,0.0,0.0,80,0.00,,,0.00,Wunderground v.1.15,2013-06-11 04:00:00,
2013-06-10 23:05:00,80.1,73.4,29.96,ESE,122,0.0,0.0,80,0.00,,,0.00,Wunderground v.1.15,2013-06-11 04:05:00,
2013-06-10 23:15:00,79.6,73.6,29.96,ESE,122,0.0,0.0,82,0.00,,,0.00,Wunderground v.1.15,2013-06-11 04:15:00,
2013-06-10 23:25:00,79.2,73.6,29.96,ESE,122,0.0,0.0,83,0.00,,,0.00,Wunderground v.1.15,2013-06-11 04:25:00,
2013-06-10 23:30:00,79.0,73.4,29.96,ESE,123,0.0,0.0,83,0.00,,,0.00,Wunderground v.1.15,2013-06-11 04:30:00,
2013-06-10 23:39:00,78.7,73.5,29.96,ESE,122,0.0,0.0,84,0.00,,,0.00,Wunderground v.1.15,2013-06-11 04:39:00,
2013-06-10 23:45:00,78.5,73.3,29.96,ESE,122,0.0,0.0,84,0.00,,,0.00,Wunderground v.1.15,2013-06-11 04:45:00,
2013-06-10 23:55:00,78.1,73.2,29.96,ESE,122,0.0,0.0,85,0.00,,,0.00,Wunderground v.1.15,2013-06-11 04:55:00,